createdAt,value
2023-03-12T00:01:17.266Z,52.22
2023-03-12T00:03:43.874Z,52.33
2023-03-12T00:06:11.318Z,52.31
2023-03-12T00:08:38.415Z,52.01
2023-03-12T00:11:10.047Z,52.15
2023-03-12T00:13:37.569Z,52.07
2023-03-12T00:16:13.496Z,52.09
2023-03-12T00:18:41.667Z,52.33
2023-03-12T00:21:08.833Z,52.38
2023-03-12T00:23:36.353Z,52.63
2023-03-12T00:26:06.735Z,52.78
2023-03-12T00:28:35.218Z,52.73
2023-03-12T00:31:13.891Z,52.93
2023-03-12T00:33:40.598Z,52.99
2023-03-12T00:36:08.202Z,52.89
2023-03-12T00:38:34.922Z,53.07
2023-03-12T00:41:01.800Z,53.25
2023-03-12T00:43:28.411Z,53.32
2023-03-12T00:45:54.979Z,53.30
2023-03-12T00:48:21.682Z,53.16
2023-03-12T00:50:48.415Z,53.00
2023-03-12T00:53:16.293Z,52.80
2023-03-12T00:55:42.901Z,52.83
2023-03-12T00:58:09.620Z,52.89
2023-03-12T01:00:36.515Z,52.82
2023-03-12T01:03:03.265Z,52.79
2023-03-12T01:05:30.039Z,52.68
2023-03-12T01:07:56.853Z,52.64
2023-03-12T01:10:23.682Z,52.61
2023-03-12T01:12:50.343Z,52.63
2023-03-12T01:15:18.043Z,52.47
2023-03-12T01:17:44.877Z,52.25
2023-03-12T01:20:11.963Z,52.00
2023-03-12T01:22:38.859Z,51.81
2023-03-12T01:25:06.421Z,51.74
2023-03-12T01:27:33.067Z,51.90
2023-03-12T01:29:59.827Z,51.73
2023-03-12T01:32:26.563Z,51.23
2023-03-12T01:34:53.475Z,51.12
2023-03-12T01:37:20.188Z,51.33
2023-03-12T01:39:46.830Z,51.28
2023-03-12T01:42:13.485Z,50.94
2023-03-12T01:44:58.962Z,51.07
2023-03-12T01:47:27.828Z,50.84
2023-03-12T01:49:56.189Z,50.81
2023-03-12T01:52:33.849Z,50.83
2023-03-12T01:55:13.493Z,50.54
2023-03-12T01:57:58.661Z,50.33
2023-03-12T02:00:27.247Z,50.54
2023-03-12T02:03:00.108Z,50.47
2023-03-12T02:05:43.848Z,50.43
2023-03-12T02:08:12.350Z,50.43
2023-03-12T02:10:39.423Z,50.34
2023-03-12T02:13:06.744Z,50.31
2023-03-12T02:15:35.873Z,49.33
2023-03-12T02:18:04.182Z,49.66
2023-03-12T02:20:45.611Z,49.48
2023-03-12T02:23:18.623Z,49.27
2023-03-12T02:25:51.172Z,49.55
2023-03-12T02:28:23.119Z,49.21
2023-03-12T02:30:52.643Z,47.99
2023-03-12T02:33:19.661Z,48.72
2023-03-12T02:35:48.173Z,47.91
2023-03-12T02:38:37.344Z,48.24
2023-03-12T02:41:33.398Z,48.42
2023-03-12T02:44:05.729Z,48.24
2023-03-12T02:46:38.142Z,48.78
2023-03-12T02:49:26.910Z,48.70
2023-03-12T02:51:54.488Z,49.08
2023-03-12T02:54:22.982Z,49.27
2023-03-12T02:56:51.082Z,49.27
2023-03-12T02:59:20.839Z,49.24
2023-03-12T03:01:56.035Z,49.45
2023-03-12T03:04:23.734Z,49.55
2023-03-12T03:06:51.364Z,49.69
2023-03-12T03:09:19.425Z,49.64
2023-03-12T03:11:46.100Z,49.56
2023-03-12T03:14:13.939Z,49.32
2023-03-12T03:16:40.885Z,49.40
2023-03-12T03:19:08.033Z,49.15
2023-03-12T03:21:34.965Z,49.17
2023-03-12T03:24:01.700Z,49.25
2023-03-12T03:26:28.482Z,48.78
2023-03-12T03:28:55.216Z,48.62
2023-03-12T03:31:22.340Z,49.09
2023-03-12T03:33:49.450Z,49.04
2023-03-12T03:36:17.210Z,48.77
2023-03-12T03:38:50.733Z,48.98
2023-03-12T03:41:19.861Z,48.92
2023-03-12T03:43:47.780Z,49.16
2023-03-12T03:46:15.948Z,49.22
2023-03-12T03:48:45.451Z,48.92
2023-03-12T03:51:12.433Z,49.06
2023-03-12T03:53:42.274Z,49.07
2023-03-12T03:56:12.311Z,48.63
2023-03-12T03:58:41.730Z,48.93
2023-03-12T04:01:09.224Z,48.41
2023-03-12T04:03:36.570Z,48.90
2023-03-12T04:06:06.243Z,48.59
2023-03-12T04:08:35.727Z,48.47
2023-03-12T04:11:29.480Z,48.57
2023-03-12T04:13:57.425Z,48.55
2023-03-12T04:16:25.618Z,48.74
2023-03-12T04:18:53.581Z,48.61
2023-03-12T04:21:21.082Z,48.79
2023-03-12T04:23:49.012Z,48.95
2023-03-12T04:26:17.490Z,48.88
2023-03-12T04:28:44.588Z,48.93
2023-03-12T04:31:11.668Z,48.51
2023-03-12T04:33:45.691Z,48.82
2023-03-12T04:36:14.609Z,48.69
2023-03-12T04:38:43.055Z,48.71
2023-03-12T04:41:14.869Z,48.80
2023-03-12T04:43:51.205Z,49.12
2023-03-12T04:46:19.418Z,49.22
2023-03-12T04:48:46.591Z,49.23
2023-03-12T04:51:14.031Z,49.20
2023-03-12T04:53:40.909Z,48.67
2023-03-12T04:56:09.346Z,49.10
2023-03-12T04:58:36.979Z,49.41
2023-03-12T05:01:05.778Z,50.02
2023-03-12T05:03:33.152Z,50.35
2023-03-12T05:06:00.210Z,50.49
2023-03-12T05:08:26.902Z,50.48
2023-03-12T05:10:53.635Z,50.81
2023-03-12T05:13:22.987Z,50.60
2023-03-12T05:15:52.422Z,50.96
2023-03-12T05:18:21.544Z,51.13
2023-03-12T05:21:02.209Z,51.93
2023-03-12T05:23:30.014Z,51.82
2023-03-12T05:25:57.793Z,51.06
2023-03-12T05:28:28.467Z,50.96
2023-03-12T05:30:59.114Z,50.52
2023-03-12T05:33:27.806Z,50.28
2023-03-12T05:35:55.005Z,50.45
2023-03-12T05:38:22.093Z,50.69
2023-03-12T05:40:57.469Z,50.58
2023-03-12T05:43:25.483Z,50.25
2023-03-12T05:45:53.325Z,49.65
2023-03-12T05:48:20.426Z,49.59
2023-03-12T05:50:48.928Z,49.86
2023-03-12T05:53:15.543Z,50.18
2023-03-12T05:55:43.925Z,51.36
2023-03-12T05:58:10.775Z,51.32
2023-03-12T06:00:38.957Z,51.09
2023-03-12T06:03:08.160Z,51.49
2023-03-12T06:05:36.914Z,51.81
2023-03-12T06:08:05.269Z,51.92
2023-03-12T06:10:32.895Z,52.08
2023-03-12T06:12:59.546Z,52.02
2023-03-12T06:15:26.285Z,52.17
2023-03-12T06:17:52.992Z,52.62
2023-03-12T06:20:19.713Z,52.62
2023-03-12T06:22:46.457Z,53.14
2023-03-12T06:25:13.101Z,53.19
2023-03-12T06:27:41.295Z,53.06
2023-03-12T06:30:09.006Z,53.17
2023-03-12T06:32:35.784Z,52.65
2023-03-12T06:35:04.463Z,52.47
2023-03-12T06:37:31.622Z,52.38
2023-03-12T06:39:58.248Z,52.17
2023-03-12T06:42:26.681Z,52.09
2023-03-12T06:44:53.919Z,51.90
2023-03-12T06:47:21.279Z,51.75
2023-03-12T06:49:47.931Z,51.47
2023-03-12T06:52:14.561Z,51.36
2023-03-12T06:54:41.232Z,50.68
2023-03-12T06:57:07.965Z,50.57
2023-03-12T06:59:34.582Z,49.74
2023-03-12T07:02:01.976Z,49.75
2023-03-12T07:04:28.680Z,50.22
2023-03-12T07:06:55.317Z,49.51
2023-03-12T07:09:22.007Z,49.09
2023-03-12T07:11:48.702Z,48.75
2023-03-12T07:14:15.316Z,48.30
2023-03-12T07:16:41.894Z,48.27
2023-03-12T07:19:08.625Z,48.35
2023-03-12T07:21:35.216Z,47.86
2023-03-12T07:24:06.819Z,47.38
2023-03-12T07:26:35.552Z,47.30
2023-03-12T07:29:03.948Z,47.93
2023-03-12T07:31:30.768Z,47.12
2023-03-12T07:33:57.606Z,46.02
2023-03-12T07:36:24.729Z,46.83
2023-03-12T07:38:51.538Z,46.79
2023-03-12T07:41:18.240Z,46.67
2023-03-12T07:43:44.978Z,46.17
2023-03-12T07:46:11.938Z,46.20
2023-03-12T07:48:39.536Z,46.27
2023-03-12T07:51:07.535Z,45.69
2023-03-12T07:53:34.247Z,44.96
2023-03-12T07:56:01.000Z,44.47
2023-03-12T07:58:27.842Z,44.72
2023-03-12T08:00:57.614Z,43.99
2023-03-12T08:03:24.517Z,44.23
2023-03-12T08:06:03.339Z,42.86
2023-03-12T08:08:31.498Z,43.02
2023-03-12T08:11:00.238Z,41.26
2023-03-12T08:13:27.463Z,41.79
2023-03-12T08:15:55.184Z,41.42
2023-03-12T08:18:22.454Z,41.55
2023-03-12T08:20:54.139Z,40.72
2023-03-12T08:23:22.083Z,40.34
2023-03-12T08:25:49.825Z,40.41
2023-03-12T08:28:17.030Z,40.19
2023-03-12T08:30:48.354Z,39.90
2023-03-12T08:33:15.319Z,39.70
2023-03-12T08:35:42.279Z,40.10
2023-03-12T08:38:08.959Z,38.61
2023-03-12T08:40:35.997Z,38.59
2023-03-12T08:43:03.211Z,38.73
2023-03-12T08:45:30.498Z,39.06
2023-03-12T08:47:57.149Z,39.24
2023-03-12T08:50:26.063Z,39.86
2023-03-12T08:52:52.732Z,38.89
2023-03-12T08:55:19.300Z,39.19
2023-03-12T08:57:46.004Z,38.23
2023-03-12T09:00:15.185Z,37.76
2023-03-12T09:02:45.860Z,37.94
2023-03-12T09:05:13.470Z,36.81
2023-03-12T09:07:40.654Z,37.39
2023-03-12T09:10:07.927Z,37.17
2023-03-12T09:12:34.673Z,37.13
2023-03-12T09:15:04.144Z,36.33
2023-03-12T09:17:31.773Z,36.42
2023-03-12T09:19:58.436Z,36.54
2023-03-12T09:22:25.166Z,36.76
2023-03-12T09:24:51.991Z,37.03
2023-03-12T09:27:19.048Z,37.18
2023-03-12T09:29:57.262Z,36.89
2023-03-12T09:32:27.503Z,35.88
2023-03-12T09:34:54.513Z,36.18
2023-03-12T09:37:23.946Z,36.26
2023-03-12T09:39:52.043Z,36.45
2023-03-12T09:42:30.858Z,36.29
2023-03-12T09:45:02.540Z,36.21
2023-03-12T09:47:32.651Z,36.21
2023-03-12T09:50:22.578Z,36.33
2023-03-12T09:52:58.077Z,35.42
2023-03-12T09:55:25.653Z,35.59
2023-03-12T09:57:53.260Z,35.82
2023-03-12T10:00:27.174Z,35.41
2023-03-12T10:03:12.784Z,35.24
2023-03-12T10:06:05.182Z,35.74
2023-03-12T10:08:41.428Z,35.43
2023-03-12T10:11:16.832Z,35.85
2023-03-12T10:13:49.473Z,35.65
2023-03-12T10:16:43.014Z,34.94
2023-03-12T10:19:12.578Z,35.21
2023-03-12T10:21:58.501Z,34.23
2023-03-12T10:24:36.979Z,34.13
2023-03-12T10:27:12.317Z,34.30
2023-03-12T10:29:44.805Z,33.88
2023-03-12T10:32:11.594Z,33.57
2023-03-12T10:34:44.420Z,33.65
2023-03-12T10:37:32.057Z,33.60
2023-03-12T10:40:01.060Z,33.87
2023-03-12T10:42:30.089Z,33.66
2023-03-12T10:45:32.286Z,33.46
2023-03-12T10:48:08.866Z,33.22
2023-03-12T10:50:41.042Z,33.05
2023-03-12T10:53:20.591Z,33.09
2023-03-12T10:56:11.182Z,33.47
2023-03-12T10:58:39.281Z,33.83
2023-03-12T11:01:16.955Z,33.83
2023-03-12T11:03:44.246Z,34.05
2023-03-12T11:06:27.953Z,34.36
2023-03-12T11:09:16.665Z,33.99
2023-03-12T11:11:49.725Z,33.26
2023-03-12T11:14:18.137Z,33.63
2023-03-12T11:16:44.836Z,34.10
2023-03-12T11:19:15.162Z,34.05
2023-03-12T11:21:58.620Z,34.14
2023-03-12T11:24:25.630Z,34.05
2023-03-12T11:27:17.300Z,34.13
2023-03-12T11:29:48.805Z,34.42
2023-03-12T11:32:23.683Z,33.32
2023-03-12T11:34:51.354Z,33.66
2023-03-12T11:37:40.544Z,34.07
2023-03-12T11:40:20.426Z,34.36
2023-03-12T11:42:56.323Z,34.96
2023-03-12T11:45:49.874Z,34.52
2023-03-12T11:48:33.586Z,34.33
2023-03-12T11:51:18.826Z,34.38
2023-03-12T11:54:07.042Z,34.43
2023-03-12T11:56:39.763Z,34.84
2023-03-12T11:59:25.235Z,34.84
2023-03-12T12:02:24.593Z,33.49
2023-03-12T12:05:21.111Z,34.15
2023-03-12T12:08:00.080Z,34.45
2023-03-12T12:10:36.165Z,34.59
2023-03-12T12:13:38.337Z,33.89
2023-03-12T12:16:23.533Z,34.23
2023-03-12T12:19:10.012Z,34.28
2023-03-12T12:21:37.309Z,33.89
2023-03-12T12:24:26.089Z,33.67
2023-03-12T12:27:28.552Z,34.46
2023-03-12T12:30:32.631Z,34.30
2023-03-12T12:33:05.420Z,34.76
2023-03-12T12:35:40.710Z,34.84
2023-03-12T12:38:21.308Z,34.85
2023-03-12T12:40:52.876Z,34.24
2023-03-12T12:43:30.285Z,34.04
2023-03-12T12:46:02.444Z,34.39
2023-03-12T12:48:40.742Z,34.75
2023-03-12T12:51:09.106Z,34.70
2023-03-12T12:53:57.866Z,34.59
2023-03-12T12:56:51.174Z,34.00
2023-03-12T12:59:27.201Z,33.99
2023-03-12T13:01:56.318Z,33.67
2023-03-12T13:04:32.244Z,34.12
2023-03-12T13:07:14.301Z,34.15
2023-03-12T13:09:45.238Z,33.99
2023-03-12T13:12:29.656Z,34.22
2023-03-12T13:14:58.462Z,34.78
2023-03-12T13:17:34.912Z,34.92
2023-03-12T13:20:13.487Z,34.63
2023-03-12T13:23:09.412Z,34.45
2023-03-12T13:25:44.836Z,34.39
2023-03-12T13:28:35.336Z,35.03
2023-03-12T13:31:29.478Z,35.48
2023-03-12T13:34:09.125Z,35.90
2023-03-12T13:36:38.980Z,35.83
2023-03-12T13:39:08.429Z,36.10
2023-03-12T13:41:40.770Z,35.51
2023-03-12T13:44:27.478Z,34.93
2023-03-12T13:47:28.870Z,36.06
2023-03-12T13:50:04.523Z,36.48
2023-03-12T13:52:37.289Z,36.72
2023-03-12T13:55:41.989Z,36.74
2023-03-12T13:58:23.448Z,36.41
2023-03-12T14:01:08.064Z,36.69
2023-03-12T14:03:42.841Z,36.64
2023-03-12T14:06:13.630Z,36.84
2023-03-12T14:08:58.930Z,37.03
2023-03-12T14:11:49.964Z,37.08
2023-03-12T14:14:24.291Z,37.61
2023-03-12T14:16:54.945Z,37.57
2023-03-12T14:19:27.975Z,38.17
2023-03-12T14:21:57.718Z,38.39
2023-03-12T14:24:30.008Z,38.26
2023-03-12T14:26:58.250Z,38.34
2023-03-12T14:29:46.763Z,38.88
2023-03-12T14:32:20.989Z,39.41
2023-03-12T14:34:54.670Z,39.91
2023-03-12T14:37:28.887Z,39.78
2023-03-12T14:40:00.582Z,40.21
2023-03-12T14:42:33.091Z,40.08
2023-03-12T14:45:03.863Z,40.04
2023-03-12T14:47:30.592Z,40.55
2023-03-12T14:49:59.181Z,41.05
2023-03-12T14:52:30.727Z,40.82
2023-03-12T14:55:04.755Z,40.56
2023-03-12T14:57:31.434Z,40.43
2023-03-12T15:00:01.164Z,41.04
2023-03-12T15:02:31.416Z,41.71
2023-03-12T15:05:01.643Z,41.51
2023-03-12T15:07:33.883Z,41.45
2023-03-12T15:10:02.074Z,41.38
2023-03-12T15:12:38.181Z,41.28
2023-03-12T15:15:11.312Z,41.48
2023-03-12T15:17:38.180Z,41.02
2023-03-12T15:20:09.440Z,41.11
2023-03-12T15:22:37.757Z,41.37
2023-03-12T15:25:35.045Z,41.24
2023-03-12T15:28:05.783Z,41.34
2023-03-12T15:30:32.980Z,41.32
2023-03-12T15:33:06.539Z,41.55
2023-03-12T15:35:33.669Z,41.38
2023-03-12T15:38:01.898Z,41.45
2023-03-12T15:40:31.203Z,41.89
2023-03-12T15:43:03.353Z,42.64
2023-03-12T15:45:38.650Z,42.19
2023-03-12T15:48:33.401Z,42.55
2023-03-12T15:51:00.362Z,42.50
2023-03-12T15:53:29.170Z,42.57
2023-03-12T15:56:26.617Z,41.90
2023-03-12T15:59:05.853Z,42.05
2023-03-12T16:01:45.212Z,42.21
2023-03-12T16:04:11.978Z,42.23
2023-03-12T16:06:38.732Z,42.45
2023-03-12T16:09:06.233Z,42.42
2023-03-12T16:11:37.147Z,42.46
2023-03-12T16:14:22.212Z,42.70
2023-03-12T16:16:49.100Z,43.34
2023-03-12T16:19:18.466Z,43.41
2023-03-12T16:21:45.759Z,43.45
2023-03-12T16:24:13.210Z,43.77
2023-03-12T16:26:58.150Z,44.02
2023-03-12T16:29:32.812Z,43.75
2023-03-12T16:31:59.742Z,43.82
2023-03-12T16:34:27.784Z,44.29
2023-03-12T16:36:54.458Z,44.50
2023-03-12T16:39:21.568Z,44.58
2023-03-12T16:41:48.338Z,44.67
2023-03-12T16:44:19.762Z,44.18
2023-03-12T16:46:46.706Z,44.63
2023-03-12T16:49:16.300Z,44.79
2023-03-12T16:51:43.308Z,44.96
2023-03-12T16:54:12.000Z,44.84
2023-03-12T16:56:44.306Z,44.89
2023-03-12T16:59:23.331Z,44.92
2023-03-12T17:01:50.175Z,45.23
2023-03-12T17:04:16.992Z,45.21
2023-03-12T17:06:43.711Z,45.39
2023-03-12T17:09:10.350Z,45.50
2023-03-12T17:11:38.025Z,45.90
2023-03-12T17:14:15.156Z,46.06
2023-03-12T17:16:41.784Z,46.13
2023-03-12T17:19:08.414Z,46.23
2023-03-12T17:21:35.029Z,46.51
2023-03-12T17:24:01.631Z,46.57
2023-03-12T17:26:28.233Z,46.40
2023-03-12T17:28:54.890Z,46.46
2023-03-12T17:31:21.607Z,46.20
2023-03-12T17:33:48.244Z,46.91
2023-03-12T17:36:14.900Z,47.08
2023-03-12T17:38:41.517Z,47.17
2023-03-12T17:41:23.381Z,47.62
2023-03-12T17:43:52.630Z,47.76
2023-03-12T17:46:19.363Z,47.81
2023-03-12T17:48:46.069Z,48.07
2023-03-12T17:51:12.699Z,48.29
2023-03-12T17:53:39.760Z,48.54
2023-03-12T17:56:07.152Z,48.73
2023-03-12T17:58:33.770Z,48.77
2023-03-12T18:01:00.437Z,48.92
2023-03-12T18:03:27.155Z,49.09
2023-03-12T18:05:53.918Z,49.09
2023-03-12T18:08:20.691Z,49.43
2023-03-12T18:10:48.793Z,49.29
2023-03-12T18:13:15.738Z,49.83
2023-03-12T18:15:42.499Z,49.85
2023-03-12T18:18:09.234Z,49.86
2023-03-12T18:20:39.553Z,49.97
2023-03-12T18:23:06.916Z,49.66
2023-03-12T18:25:33.630Z,49.87
2023-03-12T18:28:00.454Z,49.24
2023-03-12T18:30:28.259Z,49.69
2023-03-12T18:32:55.216Z,49.56
2023-03-12T18:35:22.880Z,49.72
2023-03-12T18:37:52.018Z,49.69
2023-03-12T18:40:18.708Z,49.85
2023-03-12T18:42:45.328Z,49.61
2023-03-12T18:45:12.557Z,49.87
2023-03-12T18:47:39.682Z,49.55
2023-03-12T18:50:07.555Z,49.87
2023-03-12T18:52:34.330Z,49.76
2023-03-12T18:55:01.207Z,49.76
2023-03-12T18:57:27.888Z,49.52
2023-03-12T18:59:54.564Z,49.76
2023-03-12T19:02:21.199Z,49.90
2023-03-12T19:04:47.991Z,49.74
2023-03-12T19:07:14.660Z,49.55
2023-03-12T19:09:41.336Z,49.53
2023-03-12T19:12:07.997Z,49.33
2023-03-12T19:14:34.566Z,49.50
2023-03-12T19:17:01.230Z,49.17
2023-03-12T19:19:27.926Z,49.17
2023-03-12T19:21:57.265Z,49.21
2023-03-12T19:24:24.172Z,49.34
2023-03-12T19:26:50.746Z,49.38
2023-03-12T19:29:17.366Z,49.21
2023-03-12T19:31:44.072Z,49.18
2023-03-12T19:34:10.707Z,49.09
2023-03-12T19:36:37.406Z,49.05
2023-03-12T19:39:06.765Z,48.91
2023-03-12T19:41:40.827Z,49.60
2023-03-12T19:44:07.598Z,49.84
2023-03-12T19:46:34.264Z,50.16
2023-03-12T19:49:00.939Z,49.76
2023-03-12T19:51:27.979Z,49.32
2023-03-12T19:53:54.602Z,49.26
2023-03-12T19:56:21.757Z,49.02
2023-03-12T19:58:48.524Z,48.80
2023-03-12T20:01:15.176Z,48.75
2023-03-12T20:03:43.899Z,48.53
2023-03-12T20:06:12.277Z,48.46
2023-03-12T20:08:39.219Z,48.51
2023-03-12T20:11:08.205Z,48.54
2023-03-12T20:13:35.508Z,48.63
2023-03-12T20:16:02.618Z,48.78
2023-03-12T20:18:29.624Z,48.81
2023-03-12T20:20:57.678Z,48.95
2023-03-12T20:23:25.642Z,49.07
2023-03-12T20:25:53.548Z,49.21
2023-03-12T20:28:21.684Z,49.30
2023-03-12T20:30:49.669Z,49.57
2023-03-12T20:33:16.762Z,49.73
2023-03-12T20:35:43.530Z,49.66
2023-03-12T20:38:10.258Z,50.26
2023-03-12T20:40:37.483Z,49.89
2023-03-12T20:43:05.220Z,49.91
2023-03-12T20:45:34.086Z,49.72
2023-03-12T20:48:01.127Z,49.75
2023-03-12T20:50:28.800Z,49.87
2023-03-12T20:52:55.524Z,49.84
2023-03-12T20:55:22.121Z,49.30
2023-03-12T20:57:49.801Z,48.94
2023-03-12T21:00:17.975Z,49.03
2023-03-12T21:02:45.775Z,49.04
2023-03-12T21:05:14.398Z,49.19
2023-03-12T21:07:41.362Z,49.36
2023-03-12T21:10:08.596Z,49.50
2023-03-12T21:12:35.711Z,49.47
2023-03-12T21:15:06.547Z,49.54
2023-03-12T21:17:34.546Z,49.49
2023-03-12T21:20:02.037Z,49.74
2023-03-12T21:22:32.189Z,49.77
2023-03-12T21:24:58.881Z,49.89
2023-03-12T21:27:25.992Z,49.97
2023-03-12T21:29:54.003Z,49.78
2023-03-12T21:32:21.696Z,49.97
2023-03-12T21:34:48.940Z,49.84
2023-03-12T21:37:16.361Z,49.99
2023-03-12T21:39:43.275Z,49.92
2023-03-12T21:42:09.897Z,49.87
2023-03-12T21:44:37.744Z,50.01
2023-03-12T21:47:05.649Z,50.17
2023-03-12T21:49:34.870Z,50.19
2023-03-12T21:52:03.066Z,50.27
2023-03-12T21:54:33.924Z,50.56
2023-03-12T21:57:03.045Z,50.55
2023-03-12T21:59:31.001Z,50.53
2023-03-12T22:01:58.553Z,50.29
2023-03-12T22:04:25.814Z,50.47
2023-03-12T22:06:52.528Z,50.72
2023-03-12T22:09:19.302Z,50.56
2023-03-12T22:11:45.915Z,50.43
2023-03-12T22:14:12.577Z,50.53
2023-03-12T22:16:39.154Z,50.57
2023-03-12T22:19:07.612Z,50.83
2023-03-12T22:21:34.180Z,50.84
2023-03-12T22:24:01.772Z,50.71
2023-03-12T22:26:28.451Z,50.82
2023-03-12T22:28:57.770Z,50.84
2023-03-12T22:31:26.470Z,50.60
2023-03-12T22:33:53.239Z,50.79
2023-03-12T22:36:21.122Z,50.69
2023-03-12T22:38:48.050Z,50.59
2023-03-12T22:41:23.638Z,50.71
2023-03-12T22:43:52.698Z,50.96
2023-03-12T22:46:21.773Z,50.72
2023-03-12T22:48:53.179Z,50.66
2023-03-12T22:51:20.021Z,50.99
2023-03-12T22:53:46.688Z,50.89
2023-03-12T22:56:14.829Z,51.14
2023-03-12T22:58:41.602Z,51.06
2023-03-12T23:01:14.385Z,50.74
2023-03-12T23:03:43.074Z,50.95
2023-03-12T23:06:12.032Z,51.11
2023-03-12T23:08:38.750Z,51.05
2023-03-12T23:11:06.736Z,51.05
2023-03-12T23:13:35.449Z,51.30
2023-03-12T23:16:04.619Z,51.17
2023-03-12T23:18:31.600Z,51.22
2023-03-12T23:21:00.206Z,51.28
2023-03-12T23:23:27.719Z,51.53
2023-03-12T23:25:55.968Z,51.14
2023-03-12T23:28:23.528Z,51.13
2023-03-12T23:31:01.305Z,51.31
2023-03-12T23:33:29.348Z,51.26
2023-03-12T23:36:05.576Z,51.25
2023-03-12T23:38:34.672Z,51.60
2023-03-12T23:41:05.314Z,51.33
2023-03-12T23:43:32.409Z,51.52
2023-03-12T23:46:01.347Z,51.51
2023-03-12T23:48:29.983Z,51.50
2023-03-12T23:51:08.826Z,51.43
2023-03-12T23:53:36.311Z,51.59
2023-03-12T23:56:04.787Z,51.73
2023-03-12T23:58:31.879Z,51.64
